createdAt,value
2019-05-19T00:00:43.091Z,8.80
2019-05-19T00:01:43.054Z,8.40
2019-05-19T00:02:43.106Z,8.80
2019-05-19T00:03:43.033Z,9.60
2019-05-19T00:04:43.144Z,14.90
2019-05-19T00:05:43.014Z,8.60
2019-05-19T00:06:43.031Z,8.40
2019-05-19T00:07:42.990Z,10.00
2019-05-19T00:08:43.037Z,7.70
2019-05-19T00:09:42.983Z,9.50
2019-05-19T00:10:43.051Z,9.70
2019-05-19T00:11:42.956Z,7.40
2019-05-19T00:12:42.966Z,7.10
2019-05-19T00:13:42.930Z,6.90
2019-05-19T00:14:43.005Z,7.30
2019-05-19T00:15:42.942Z,9.40
2019-05-19T00:16:42.992Z,7.40
2019-05-19T00:17:42.879Z,9.80
2019-05-19T00:18:42.951Z,8.80
2019-05-19T00:19:42.880Z,8.70
2019-05-19T00:20:42.918Z,8.20
2019-05-19T00:21:42.841Z,7.40
2019-05-19T00:22:42.931Z,8.90
2019-05-19T00:23:42.817Z,6.40
2019-05-19T00:24:42.880Z,7.40
2019-05-19T00:25:42.797Z,6.10
2019-05-19T00:26:42.856Z,6.40
2019-05-19T00:27:42.775Z,7.10
2019-05-19T00:28:42.879Z,6.30
2019-05-19T00:29:42.762Z,7.20
2019-05-19T00:30:57.736Z,7.90
2019-05-19T00:31:42.726Z,6.80
2019-05-19T00:32:44.745Z,7.60
2019-05-19T00:33:42.712Z,6.70
2019-05-19T00:34:43.736Z,7.10
2019-05-19T00:35:42.693Z,7.10
2019-05-19T00:36:42.726Z,7.40
2019-05-19T00:37:42.660Z,8.80
2019-05-19T00:38:42.737Z,9.40
2019-05-19T00:39:42.640Z,10.80
2019-05-19T00:40:42.686Z,11.20
2019-05-19T00:41:42.622Z,11.80
2019-05-19T00:42:42.661Z,9.10
2019-05-19T00:43:42.598Z,9.60
2019-05-19T00:44:42.674Z,10.70
2019-05-19T00:45:42.590Z,9.10
2019-05-19T00:46:42.584Z,10.50
2019-05-19T00:47:42.555Z,7.90
2019-05-19T00:48:42.604Z,9.90
2019-05-19T00:49:42.534Z,7.40
2019-05-19T00:50:42.649Z,9.20
2019-05-19T00:51:42.550Z,10.30
2019-05-19T00:52:42.527Z,10.40
2019-05-19T00:53:42.484Z,8.80
2019-05-19T00:54:42.541Z,10.70
2019-05-19T00:55:42.476Z,9.60
2019-05-19T00:56:42.553Z,7.60
2019-05-19T00:57:42.440Z,10.60
2019-05-19T00:58:42.465Z,8.20
2019-05-19T00:59:42.822Z,10.00
2019-05-19T01:00:42.503Z,8.20
2019-05-19T01:01:42.402Z,7.70
2019-05-19T01:02:42.485Z,7.50
2019-05-19T01:03:42.373Z,8.90
2019-05-19T01:04:42.407Z,12.40
2019-05-19T01:05:42.399Z,10.10
2019-05-19T01:06:42.410Z,8.30
2019-05-19T01:07:42.331Z,10.00
2019-05-19T01:08:42.425Z,9.70
2019-05-19T01:09:42.309Z,8.40
2019-05-19T01:10:42.373Z,10.90
2019-05-19T01:11:42.288Z,11.20
2019-05-19T01:12:42.350Z,8.20
2019-05-19T01:13:42.265Z,9.50
2019-05-19T01:14:42.364Z,10.50
2019-05-19T01:15:42.258Z,10.00
2019-05-19T01:16:42.277Z,12.50
2019-05-19T01:17:42.233Z,10.70
2019-05-19T01:18:42.290Z,11.60
2019-05-19T01:19:55.195Z,10.40
2019-05-19T01:20:43.200Z,9.70
2019-05-19T01:21:42.207Z,8.30
2019-05-19T01:22:42.166Z,8.10
2019-05-19T01:23:42.223Z,9.40
2019-05-19T01:24:42.156Z,8.80
2019-05-19T01:25:42.169Z,7.60
2019-05-19T01:26:42.120Z,8.10
2019-05-19T01:27:42.149Z,12.20
2019-05-19T01:28:42.114Z,10.20
2019-05-19T01:29:42.157Z,9.10
2019-05-19T01:30:42.102Z,9.70
2019-05-19T01:31:42.172Z,10.60
2019-05-19T01:32:42.058Z,11.20
2019-05-19T01:33:42.088Z,10.50
2019-05-19T01:34:42.043Z,8.80
2019-05-19T01:35:42.129Z,9.50
2019-05-19T01:36:42.019Z,12.80
2019-05-19T01:37:42.115Z,9.50
2019-05-19T01:38:41.990Z,11.90
2019-05-19T01:39:42.024Z,12.70
2019-05-19T01:40:41.983Z,12.30
2019-05-19T01:41:42.037Z,14.60
2019-05-19T01:42:41.949Z,16.90
2019-05-19T01:43:41.948Z,11.40
2019-05-19T01:44:41.928Z,11.40
2019-05-19T01:45:41.998Z,9.90
2019-05-19T01:46:41.905Z,12.20
2019-05-19T01:47:41.975Z,16.30
2019-05-19T01:48:41.881Z,14.60
2019-05-19T01:49:41.889Z,9.80
2019-05-19T01:50:41.876Z,10.30
2019-05-19T01:51:41.901Z,11.90
2019-05-19T01:52:41.845Z,10.40
2019-05-19T01:53:41.913Z,9.40
2019-05-19T01:54:41.816Z,11.20
2019-05-19T01:55:41.855Z,11.20
2019-05-19T01:56:41.793Z,10.10
2019-05-19T01:57:41.839Z,13.00
2019-05-19T01:58:41.776Z,11.90
2019-05-19T01:59:41.853Z,12.30
2019-05-19T02:00:41.763Z,11.00
2019-05-19T02:01:48.732Z,12.10
2019-05-19T02:02:41.745Z,12.80
2019-05-19T02:03:48.746Z,14.00
2019-05-19T02:04:41.710Z,13.70
2019-05-19T02:05:42.747Z,13.20
2019-05-19T02:06:41.692Z,12.00
2019-05-19T02:07:41.704Z,11.70
2019-05-19T02:08:41.670Z,15.70
2019-05-19T02:09:41.667Z,14.40
2019-05-19T02:10:41.657Z,13.00
2019-05-19T02:11:41.732Z,16.10
2019-05-19T02:12:41.619Z,13.20
2019-05-19T02:13:41.654Z,13.00
2019-05-19T02:14:41.600Z,14.40
2019-05-19T02:15:41.687Z,16.20
2019-05-19T02:16:41.592Z,13.90
2019-05-19T02:17:41.673Z,17.00
2019-05-19T02:18:41.557Z,17.40
2019-05-19T02:19:41.579Z,14.10
2019-05-19T02:20:41.561Z,17.80
2019-05-19T02:21:41.595Z,23.60
2019-05-19T02:22:41.523Z,24.10
2019-05-19T02:23:41.613Z,26.90
2019-05-19T02:24:41.493Z,25.00
2019-05-19T02:25:41.522Z,25.60
2019-05-19T02:26:41.485Z,21.70
2019-05-19T02:27:41.535Z,22.70
2019-05-19T02:28:41.444Z,20.10
2019-05-19T02:29:41.555Z,19.60
2019-05-19T02:30:41.438Z,23.40
2019-05-19T02:31:41.505Z,20.80
2019-05-19T02:32:41.406Z,22.60
2019-05-19T02:33:41.487Z,19.70
2019-05-19T02:34:41.385Z,20.00
2019-05-19T02:35:41.386Z,20.10
2019-05-19T02:36:41.384Z,18.70
2019-05-19T02:37:41.399Z,18.80
2019-05-19T02:38:41.341Z,14.70
2019-05-19T02:39:41.411Z,17.00
2019-05-19T02:40:41.317Z,16.20
2019-05-19T02:41:41.356Z,19.40
2019-05-19T02:42:41.358Z,21.00
2019-05-19T02:43:41.341Z,22.40
2019-05-19T02:44:41.275Z,19.90
2019-05-19T02:45:41.349Z,23.60
2019-05-19T02:46:41.264Z,23.40
2019-05-19T02:47:41.262Z,22.20
2019-05-19T02:48:41.229Z,19.00
2019-05-19T02:49:41.277Z,18.90
2019-05-19T02:50:51.765Z,16.50
2019-05-19T02:51:42.208Z,16.40
2019-05-19T02:52:41.295Z,20.20
2019-05-19T02:53:41.177Z,21.10
2019-05-19T02:54:41.206Z,17.70
2019-05-19T02:55:41.153Z,18.40
2019-05-19T02:56:41.249Z,20.90
2019-05-19T02:57:41.127Z,20.50
2019-05-19T02:58:41.133Z,18.00
2019-05-19T02:59:41.118Z,16.70
2019-05-19T03:00:41.145Z,24.80
2019-05-19T03:01:41.103Z,20.50
2019-05-19T03:02:41.158Z,17.30
2019-05-19T03:03:41.063Z,19.30
2019-05-19T03:04:41.070Z,17.60
2019-05-19T03:05:41.040Z,16.80
2019-05-19T03:06:41.114Z,16.70
2019-05-19T03:07:41.021Z,16.60
2019-05-19T03:08:41.099Z,19.10
2019-05-19T03:09:41.004Z,19.60
2019-05-19T03:10:41.013Z,15.60
2019-05-19T03:11:40.991Z,16.20
2019-05-19T03:12:41.026Z,17.30
2019-05-19T03:13:40.958Z,19.70
2019-05-19T03:14:41.049Z,16.00
2019-05-19T03:15:40.932Z,22.40
2019-05-19T03:16:40.977Z,22.60
2019-05-19T03:17:40.973Z,20.10
2019-05-19T03:18:40.964Z,17.20
2019-05-19T03:19:40.892Z,19.00
2019-05-19T03:20:40.981Z,21.70
2019-05-19T03:21:40.885Z,21.40
2019-05-19T03:22:40.889Z,20.50
2019-05-19T03:23:40.851Z,23.10
2019-05-19T03:24:40.901Z,36.20
2019-05-19T03:25:44.044Z,33.80
2019-05-19T03:26:40.843Z,25.70
2019-05-19T03:27:40.802Z,26.50
2019-05-19T03:28:40.825Z,25.70
2019-05-19T03:29:40.795Z,21.50
2019-05-19T03:30:40.777Z,23.90
2019-05-19T03:31:40.802Z,25.40
2019-05-19T03:32:40.867Z,22.00
2019-05-19T03:33:40.826Z,22.60
2019-05-19T03:34:47.740Z,20.10
2019-05-19T03:35:40.743Z,23.00
2019-05-19T03:36:41.731Z,19.60
2019-05-19T03:37:40.705Z,19.80
2019-05-19T03:38:41.724Z,25.00
2019-05-19T03:39:40.669Z,22.70
2019-05-19T03:40:40.704Z,25.50
2019-05-19T03:41:40.648Z,20.10
2019-05-19T03:42:40.743Z,21.90
2019-05-19T03:43:40.653Z,26.00
2019-05-19T03:44:40.633Z,26.80
2019-05-19T03:45:40.603Z,25.30
2019-05-19T03:46:40.645Z,22.40
2019-05-19T03:47:40.600Z,25.00
2019-05-19T03:48:40.659Z,28.30
2019-05-19T03:49:40.560Z,26.80
2019-05-19T03:50:40.570Z,17.80
2019-05-19T03:51:41.609Z,24.30
2019-05-19T03:52:40.607Z,25.50
2019-05-19T03:53:40.516Z,20.90
2019-05-19T03:54:40.594Z,23.70
2019-05-19T03:55:40.494Z,20.00
2019-05-19T03:56:40.507Z,19.80
2019-05-19T03:57:40.485Z,22.20
2019-05-19T03:58:40.520Z,21.30
2019-05-19T03:59:40.449Z,20.10
2019-05-19T04:00:40.533Z,20.60
2019-05-19T04:01:40.428Z,21.30
2019-05-19T04:02:40.473Z,14.50
2019-05-19T04:03:40.416Z,16.50
2019-05-19T04:04:40.462Z,16.50
2019-05-19T04:05:40.402Z,17.40
2019-05-19T04:06:40.475Z,16.20
2019-05-19T04:07:40.390Z,15.70
2019-05-19T04:08:40.384Z,16.60
2019-05-19T04:09:40.348Z,15.20
2019-05-19T04:10:40.402Z,13.30
2019-05-19T04:11:40.325Z,13.30
2019-05-19T04:12:40.339Z,15.00
2019-05-19T04:13:40.297Z,14.30
2019-05-19T04:14:40.330Z,13.60
2019-05-19T04:15:40.288Z,14.60
2019-05-19T04:16:40.336Z,12.80
2019-05-19T04:17:40.265Z,13.80
2019-05-19T04:18:48.233Z,16.00
2019-05-19T04:19:40.250Z,13.20
2019-05-19T04:20:56.234Z,15.00
2019-05-19T04:21:48.770Z,13.40
2019-05-19T04:22:41.215Z,12.60
2019-05-19T04:23:41.205Z,13.40
2019-05-19T04:24:40.183Z,10.90
2019-05-19T04:25:40.193Z,11.90
2019-05-19T04:26:40.164Z,12.80
2019-05-19T04:27:40.237Z,10.70
2019-05-19T04:28:40.135Z,11.60
2019-05-19T04:29:40.228Z,10.80
2019-05-19T04:30:40.125Z,11.20
2019-05-19T04:31:40.132Z,12.60
2019-05-19T04:32:40.111Z,13.00
2019-05-19T04:33:40.144Z,12.10
2019-05-19T04:34:40.068Z,16.00
2019-05-19T04:35:40.164Z,11.30
2019-05-19T04:36:40.045Z,15.00
2019-05-19T04:37:40.099Z,14.40
2019-05-19T04:38:40.027Z,13.50
2019-05-19T04:39:40.084Z,14.10
2019-05-19T04:40:40.000Z,15.40
2019-05-19T04:41:40.476Z,13.70
2019-05-19T04:42:39.995Z,14.80
2019-05-19T04:43:40.009Z,12.60
2019-05-19T04:44:39.960Z,12.90
2019-05-19T04:45:40.023Z,15.50
2019-05-19T04:46:39.933Z,13.20
2019-05-19T04:47:39.961Z,13.30
2019-05-19T04:48:39.913Z,13.20
2019-05-19T04:49:39.954Z,13.20
2019-05-19T04:50:39.891Z,15.10
2019-05-19T04:51:39.962Z,14.30
2019-05-19T04:52:39.908Z,16.60
2019-05-19T04:53:39.871Z,14.30
2019-05-19T04:54:39.858Z,11.50
2019-05-19T04:55:39.887Z,16.70
2019-05-19T04:56:39.831Z,12.50
2019-05-19T04:57:39.934Z,13.10
2019-05-19T04:58:39.805Z,15.20
2019-05-19T04:59:39.812Z,13.50
2019-05-19T05:00:39.795Z,13.40
2019-05-19T05:01:39.829Z,12.10
2019-05-19T05:02:39.774Z,10.70
2019-05-19T05:03:40.863Z,12.40
2019-05-19T05:04:39.749Z,12.60
2019-05-19T05:05:47.736Z,12.50
2019-05-19T05:06:39.722Z,13.40
2019-05-19T05:07:41.741Z,12.30
2019-05-19T05:08:39.696Z,13.40
2019-05-19T05:09:40.698Z,13.90
2019-05-19T05:10:39.671Z,9.30
2019-05-19T05:11:39.692Z,9.30
2019-05-19T05:12:39.670Z,10.30
2019-05-19T05:13:39.701Z,12.70
2019-05-19T05:14:39.633Z,11.30
2019-05-19T05:15:39.715Z,9.90
2019-05-19T05:16:39.611Z,14.10
2019-05-19T05:17:39.660Z,11.70
2019-05-19T05:18:39.586Z,12.30
2019-05-19T05:19:39.640Z,12.10
2019-05-19T05:20:39.561Z,10.00
2019-05-19T05:21:39.680Z,10.00
2019-05-19T05:22:39.541Z,11.60
2019-05-19T05:23:39.597Z,12.20
2019-05-19T05:24:39.521Z,10.50
2019-05-19T05:25:39.511Z,13.50
2019-05-19T05:26:39.504Z,10.70
2019-05-19T05:27:39.594Z,10.50
2019-05-19T05:28:39.491Z,10.50
2019-05-19T05:29:39.505Z,11.60
2019-05-19T05:30:39.450Z,11.30
2019-05-19T05:31:39.520Z,9.70
2019-05-19T05:32:39.429Z,11.90
2019-05-19T05:33:39.463Z,11.70
2019-05-19T05:34:39.406Z,10.80
2019-05-19T05:35:39.463Z,13.10
2019-05-19T05:36:39.384Z,10.80
2019-05-19T05:37:39.458Z,11.20
2019-05-19T05:38:39.379Z,12.10
2019-05-19T05:39:39.369Z,12.30
2019-05-19T05:40:39.341Z,11.10
2019-05-19T05:41:39.383Z,12.10
2019-05-19T05:42:39.324Z,10.30
2019-05-19T05:43:39.470Z,10.70
2019-05-19T05:44:40.622Z,9.80
2019-05-19T05:45:39.310Z,11.60
2019-05-19T05:46:39.276Z,10.30
2019-05-19T05:47:39.323Z,11.60
2019-05-19T05:48:39.273Z,9.00
2019-05-19T05:49:39.339Z,10.30
2019-05-19T05:50:39.229Z,11.30
2019-05-19T05:51:39.249Z,11.10
2019-05-19T05:52:39.339Z,11.60
2019-05-19T05:53:40.318Z,11.80
2019-05-19T05:54:39.185Z,8.20
2019-05-19T05:55:39.278Z,11.60
2019-05-19T05:56:39.166Z,10.40
2019-05-19T05:57:39.184Z,10.10
2019-05-19T05:58:39.157Z,11.70
2019-05-19T05:59:39.198Z,11.20
2019-05-19T06:00:39.120Z,9.00
2019-05-19T06:01:39.219Z,9.20
2019-05-19T06:02:39.107Z,9.00
2019-05-19T06:03:39.162Z,8.80
2019-05-19T06:04:39.085Z,8.60
2019-05-19T06:05:39.142Z,10.00
2019-05-19T06:06:39.056Z,9.50
2019-05-19T06:07:39.160Z,9.10
2019-05-19T06:08:39.047Z,9.70
2019-05-19T06:09:39.069Z,13.60
2019-05-19T06:10:39.019Z,9.50
2019-05-19T06:11:39.099Z,8.50
2019-05-19T06:12:38.991Z,9.70
2019-05-19T06:13:39.027Z,10.10
2019-05-19T06:14:38.969Z,11.40
2019-05-19T06:15:39.001Z,9.70
2019-05-19T06:16:38.960Z,13.40
2019-05-19T06:17:39.018Z,8.50
2019-05-19T06:18:38.938Z,9.70
2019-05-19T06:19:38.930Z,9.80
2019-05-19T06:20:38.907Z,8.20
2019-05-19T06:21:38.939Z,8.80
2019-05-19T06:22:53.149Z,10.30
2019-05-19T06:23:39.883Z,8.10
2019-05-19T06:24:38.960Z,9.90
2019-05-19T06:25:38.850Z,9.20
2019-05-19T06:26:38.871Z,9.00
2019-05-19T06:27:38.828Z,9.30
2019-05-19T06:28:38.916Z,10.10
2019-05-19T06:29:38.804Z,8.30
2019-05-19T06:30:38.898Z,8.20
2019-05-19T06:31:38.801Z,9.50
2019-05-19T06:32:53.765Z,9.20
2019-05-19T06:33:38.775Z,8.70
2019-05-19T06:34:40.872Z,8.40
2019-05-19T06:35:38.745Z,8.20
2019-05-19T06:36:39.759Z,10.10
2019-05-19T06:37:38.718Z,9.70
2019-05-19T06:38:38.798Z,10.90
2019-05-19T06:39:38.695Z,7.60
2019-05-19T06:40:38.774Z,13.30
2019-05-19T06:41:38.673Z,8.20
2019-05-19T06:42:39.699Z,8.90
2019-05-19T06:43:38.666Z,8.70
2019-05-19T06:44:38.688Z,9.60
2019-05-19T06:45:38.635Z,7.70
2019-05-19T06:46:38.704Z,9.20
2019-05-19T06:47:39.005Z,7.90
2019-05-19T06:48:38.651Z,8.20
2019-05-19T06:49:38.588Z,7.20
2019-05-19T06:50:40.828Z,9.80
2019-05-19T06:51:38.571Z,10.30
2019-05-19T06:52:38.645Z,11.00
2019-05-19T06:53:38.565Z,10.50
2019-05-19T06:54:38.555Z,10.20
2019-05-19T06:55:38.525Z,8.40
2019-05-19T06:56:38.566Z,7.90
2019-05-19T06:57:38.506Z,10.00
2019-05-19T06:58:38.614Z,8.60
2019-05-19T06:59:38.485Z,8.30
2019-05-19T07:00:38.493Z,8.00
2019-05-19T07:01:38.462Z,10.30
2019-05-19T07:02:38.512Z,10.70
2019-05-19T07:03:38.476Z,8.90
2019-05-19T07:04:38.522Z,9.60
2019-05-19T07:05:38.426Z,8.00
2019-05-19T07:06:38.543Z,8.20
2019-05-19T07:07:38.401Z,8.10
2019-05-19T07:08:38.450Z,8.60
2019-05-19T07:09:38.388Z,8.30
2019-05-19T07:10:38.462Z,9.10
2019-05-19T07:11:38.352Z,9.60
2019-05-19T07:12:38.374Z,10.30
2019-05-19T07:13:38.343Z,8.00
2019-05-19T07:14:38.413Z,9.80
2019-05-19T07:15:38.312Z,8.20
2019-05-19T07:16:38.404Z,9.60
2019-05-19T07:17:38.289Z,7.60
2019-05-19T07:18:38.282Z,8.30
2019-05-19T07:19:38.281Z,8.50
2019-05-19T07:21:38.242Z,7.80
2019-05-19T07:22:39.255Z,8.80
2019-05-19T07:23:38.222Z,11.00
2019-05-19T07:24:38.276Z,11.80
2019-05-19T07:25:38.213Z,8.60
2019-05-19T07:26:38.261Z,8.00
2019-05-19T07:27:38.179Z,7.90
2019-05-19T07:28:38.279Z,10.10
2019-05-19T07:29:38.171Z,9.00
2019-05-19T07:30:38.185Z,7.70
2019-05-19T07:31:38.143Z,8.50
2019-05-19T07:32:38.202Z,7.90
2019-05-19T07:33:38.121Z,7.40
2019-05-19T07:34:38.140Z,7.30
2019-05-19T07:35:38.107Z,9.40
2019-05-19T07:36:38.122Z,7.60
2019-05-19T07:37:38.085Z,8.80
2019-05-19T07:38:38.137Z,7.60
2019-05-19T07:39:38.074Z,8.10
2019-05-19T07:40:38.150Z,7.90
2019-05-19T07:41:38.031Z,7.80
2019-05-19T07:42:38.061Z,7.70
2019-05-19T07:43:38.039Z,8.00
2019-05-19T07:44:38.106Z,8.00
2019-05-19T07:45:37.997Z,7.30
2019-05-19T07:46:38.089Z,8.10
2019-05-19T07:47:37.967Z,7.50
2019-05-19T07:48:38.003Z,7.90
2019-05-19T07:49:37.967Z,8.30
2019-05-19T07:50:38.326Z,6.80
2019-05-19T07:51:37.924Z,7.80
2019-05-19T07:52:37.952Z,7.10
2019-05-19T07:53:42.863Z,7.00
2019-05-19T07:54:38.997Z,7.50
2019-05-19T07:55:37.879Z,6.90
2019-05-19T07:56:37.962Z,8.00
2019-05-19T07:57:37.859Z,7.00
2019-05-19T07:58:37.869Z,8.00
2019-05-19T07:59:37.853Z,11.60
2019-05-19T08:00:37.877Z,7.80
2019-05-19T08:01:37.826Z,7.20
2019-05-19T08:02:37.894Z,6.20
2019-05-19T08:03:37.793Z,8.20
2019-05-19T08:04:41.322Z,6.70
2019-05-19T08:05:37.773Z,6.20
2019-05-19T08:06:44.780Z,6.50
2019-05-19T08:07:38.051Z,6.60
2019-05-19T08:08:38.750Z,6.40
2019-05-19T08:09:37.746Z,6.10
2019-05-19T08:10:37.741Z,7.00
2019-05-19T08:11:37.705Z,8.10
2019-05-19T08:12:37.757Z,7.20
2019-05-19T08:13:38.080Z,6.80
2019-05-19T08:14:37.803Z,7.20
2019-05-19T08:15:37.670Z,7.40
2019-05-19T08:16:37.680Z,7.20
2019-05-19T08:17:37.664Z,6.80
2019-05-19T08:18:37.693Z,7.40
2019-05-19T08:19:37.649Z,6.50
2019-05-19T08:20:37.707Z,7.30
2019-05-19T08:21:37.599Z,6.40
2019-05-19T08:22:37.617Z,6.50
2019-05-19T08:23:37.582Z,8.30
2019-05-19T08:24:37.673Z,6.10
2019-05-19T08:25:37.577Z,8.80
2019-05-19T08:26:37.645Z,5.30
2019-05-19T08:27:37.529Z,6.00
2019-05-19T08:28:37.556Z,5.80
2019-05-19T08:29:37.521Z,7.60
2019-05-19T08:30:37.576Z,6.50
2019-05-19T08:31:37.493Z,6.40
2019-05-19T08:32:37.585Z,6.40
2019-05-19T08:33:37.481Z,9.10
2019-05-19T08:34:37.529Z,6.80
2019-05-19T08:35:37.459Z,7.00
2019-05-19T08:36:37.509Z,6.90
2019-05-19T08:37:37.424Z,6.00
2019-05-19T08:38:37.524Z,7.00
2019-05-19T08:39:37.418Z,6.70
2019-05-19T08:40:37.434Z,7.00
2019-05-19T08:41:37.380Z,6.90
2019-05-19T08:42:37.447Z,6.40
2019-05-19T08:43:37.360Z,6.40
2019-05-19T08:44:37.419Z,6.10
2019-05-19T08:45:37.333Z,5.60
2019-05-19T08:46:37.372Z,5.90
2019-05-19T08:47:37.314Z,5.80
2019-05-19T08:48:38.411Z,7.50
2019-05-19T08:49:37.312Z,8.30
2019-05-19T08:50:37.335Z,6.20
2019-05-19T08:51:37.274Z,5.90
2019-05-19T08:52:39.765Z,9.80
2019-05-19T08:53:37.287Z,5.70
2019-05-19T08:54:39.275Z,5.80
2019-05-19T08:55:37.244Z,5.80
2019-05-19T08:56:37.238Z,5.60
2019-05-19T08:57:37.209Z,4.80
2019-05-19T08:58:37.251Z,5.60
2019-05-19T08:59:37.192Z,5.40
2019-05-19T09:00:38.573Z,6.30
2019-05-19T09:01:37.170Z,5.80
2019-05-19T09:02:37.174Z,5.80
2019-05-19T09:03:37.191Z,5.90
2019-05-19T09:04:37.189Z,6.70
2019-05-19T09:05:37.160Z,7.10
2019-05-19T09:06:37.204Z,5.60
2019-05-19T09:07:37.107Z,5.70
2019-05-19T09:08:37.114Z,6.10
2019-05-19T09:09:37.093Z,6.00
2019-05-19T09:10:37.161Z,6.10
2019-05-19T09:11:37.062Z,6.10
2019-05-19T09:12:37.140Z,6.30
2019-05-19T09:13:37.050Z,6.30
2019-05-19T09:14:37.085Z,6.40
2019-05-19T09:15:37.036Z,5.50
2019-05-19T09:16:37.077Z,5.60
2019-05-19T09:17:36.999Z,4.70
2019-05-19T09:18:37.081Z,5.10
2019-05-19T09:19:36.981Z,5.30
2019-05-19T09:20:37.027Z,5.00
2019-05-19T09:21:36.969Z,5.30
2019-05-19T09:22:37.022Z,5.20
2019-05-19T09:23:36.941Z,4.70
2019-05-19T09:24:37.454Z,5.80
2019-05-19T09:25:36.935Z,5.20
2019-05-19T09:26:36.929Z,4.80
2019-05-19T09:27:36.907Z,5.10
2019-05-19T09:28:36.943Z,5.70
2019-05-19T09:29:36.881Z,5.80
2019-05-19T09:30:36.990Z,7.80
2019-05-19T09:31:36.856Z,6.30
2019-05-19T09:32:36.869Z,5.70
2019-05-19T09:33:38.183Z,5.90
2019-05-19T09:34:38.931Z,5.60
2019-05-19T09:35:36.826Z,5.20
2019-05-19T09:36:37.927Z,5.60
2019-05-19T09:37:36.799Z,5.30
2019-05-19T09:38:36.806Z,4.80
2019-05-19T09:39:36.793Z,5.20
2019-05-19T09:40:38.800Z,5.50
2019-05-19T09:41:36.754Z,5.80
2019-05-19T09:42:37.774Z,5.10
2019-05-19T09:43:36.728Z,5.00
2019-05-19T09:44:36.745Z,5.10
2019-05-19T09:45:36.719Z,5.40
2019-05-19T09:46:36.761Z,4.60
2019-05-19T09:47:36.743Z,4.70
2019-05-19T09:48:36.784Z,4.90
2019-05-19T09:49:36.668Z,4.90
2019-05-19T09:50:36.716Z,5.00
2019-05-19T09:51:36.647Z,5.40
2019-05-19T09:52:36.701Z,5.20
2019-05-19T09:53:36.622Z,5.00
2019-05-19T09:54:44.961Z,5.00
2019-05-19T09:55:37.614Z,4.90
2019-05-19T09:56:36.624Z,4.70
2019-05-19T09:57:36.590Z,4.30
2019-05-19T09:58:36.636Z,4.50
2019-05-19T09:59:36.557Z,4.80
2019-05-19T10:00:36.580Z,4.30
2019-05-19T10:01:36.546Z,5.20
2019-05-19T10:02:36.562Z,5.80
2019-05-19T10:03:36.526Z,4.70
2019-05-19T10:04:36.580Z,5.30
2019-05-19T10:05:36.511Z,6.50
2019-05-19T10:06:36.618Z,4.60
2019-05-19T10:07:36.482Z,4.40
2019-05-19T10:08:36.501Z,4.40
2019-05-19T10:09:36.452Z,4.60
2019-05-19T10:10:36.550Z,4.20
2019-05-19T10:11:36.433Z,4.70
2019-05-19T10:12:36.531Z,5.40
2019-05-19T10:13:37.879Z,4.30
2019-05-19T10:14:36.445Z,4.50
2019-05-19T10:15:36.419Z,4.30
2019-05-19T10:16:36.457Z,5.40
2019-05-19T10:17:36.372Z,4.90
2019-05-19T10:18:36.466Z,4.70
2019-05-19T10:19:36.756Z,4.60
2019-05-19T10:20:53.393Z,5.10
2019-05-19T10:21:36.351Z,5.00
2019-05-19T10:22:45.403Z,5.00
2019-05-19T10:23:36.310Z,5.00
2019-05-19T10:24:37.333Z,5.10
2019-05-19T10:25:36.294Z,5.60
2019-05-19T10:26:36.347Z,5.00
2019-05-19T10:27:36.274Z,4.70
2019-05-19T10:28:38.276Z,5.50
2019-05-19T10:29:36.250Z,5.90
2019-05-19T10:30:37.253Z,4.70
2019-05-19T10:31:36.247Z,5.40
2019-05-19T10:32:36.257Z,5.80
2019-05-19T10:33:36.207Z,4.80
2019-05-19T10:34:36.274Z,6.90
2019-05-19T10:35:36.189Z,5.00
2019-05-19T10:36:36.212Z,4.80
2019-05-19T10:37:37.237Z,5.10
2019-05-19T10:38:36.200Z,5.50
2019-05-19T10:39:36.160Z,4.90
2019-05-19T10:40:36.207Z,5.40
2019-05-19T10:41:36.141Z,5.20
2019-05-19T10:42:36.230Z,6.00
2019-05-19T10:43:36.110Z,5.60
2019-05-19T10:44:36.133Z,5.70
2019-05-19T10:45:36.092Z,5.10
2019-05-19T10:46:36.199Z,6.30
2019-05-19T10:47:36.068Z,5.20
2019-05-19T10:48:36.164Z,5.10
2019-05-19T10:49:36.051Z,6.50
2019-05-19T10:50:36.079Z,5.70
2019-05-19T10:51:36.047Z,5.30
2019-05-19T10:52:36.086Z,5.30
2019-05-19T10:53:36.007Z,5.20
2019-05-19T10:54:36.104Z,5.00
2019-05-19T10:55:37.099Z,6.30
2019-05-19T10:56:36.045Z,5.40
2019-05-19T10:57:35.961Z,5.20
2019-05-19T10:58:36.028Z,6.00
2019-05-19T10:59:35.958Z,5.00
2019-05-19T11:00:36.044Z,5.60
2019-05-19T11:01:35.937Z,5.10
2019-05-19T11:02:35.952Z,6.30
2019-05-19T11:03:35.909Z,5.10
2019-05-19T11:04:35.938Z,5.20
2019-05-19T11:05:35.880Z,5.30
2019-05-19T11:06:36.008Z,5.90
2019-05-19T11:07:35.858Z,4.70
2019-05-19T11:08:50.816Z,5.50
2019-05-19T11:09:35.835Z,5.20
2019-05-19T11:11:35.830Z,5.40
2019-05-19T11:12:36.837Z,5.60
2019-05-19T11:13:35.799Z,6.50
2019-05-19T11:14:35.827Z,5.20
2019-05-19T11:15:35.774Z,5.90
2019-05-19T11:16:35.875Z,5.10
2019-05-19T11:17:35.758Z,5.30
2019-05-19T11:18:36.781Z,5.60
2019-05-19T11:19:35.736Z,5.20
2019-05-19T11:20:35.872Z,5.70
2019-05-19T11:21:35.735Z,6.10
2019-05-19T11:22:35.779Z,6.00
2019-05-19T11:23:35.697Z,5.30
2019-05-19T11:24:35.794Z,5.70
2019-05-19T11:25:50.428Z,5.50
2019-05-19T11:26:36.674Z,4.90
2019-05-19T11:27:35.711Z,5.40
2019-05-19T11:28:35.642Z,5.40
2019-05-19T11:29:35.726Z,4.70
2019-05-19T11:30:35.670Z,4.90
2019-05-19T11:31:35.669Z,5.40
2019-05-19T11:32:35.602Z,6.30
2019-05-19T11:33:35.651Z,5.20
2019-05-19T11:34:35.582Z,6.80
2019-05-19T11:35:35.675Z,4.90
2019-05-19T11:36:35.596Z,5.30
2019-05-19T11:37:35.582Z,5.10
2019-05-19T11:38:35.549Z,4.60
2019-05-19T11:39:35.589Z,5.30
2019-05-19T11:40:35.519Z,5.70
2019-05-19T11:41:35.604Z,4.90
2019-05-19T11:42:35.633Z,6.20
2019-05-19T11:43:35.515Z,7.40
2019-05-19T11:44:35.485Z,5.30
2019-05-19T11:45:35.533Z,5.20
2019-05-19T11:46:35.458Z,5.50
2019-05-19T11:47:35.479Z,5.20
2019-05-19T11:48:35.437Z,5.20
2019-05-19T11:49:35.457Z,5.50
2019-05-19T11:50:35.423Z,5.00
2019-05-19T11:51:35.470Z,5.00
2019-05-19T11:52:35.407Z,5.90
2019-05-19T11:53:36.407Z,5.20
2019-05-19T11:54:35.373Z,4.90
2019-05-19T11:55:35.403Z,5.00
2019-05-19T11:56:35.359Z,5.20
2019-05-19T11:57:35.441Z,5.10
2019-05-19T11:58:35.332Z,4.60
2019-05-19T11:59:35.425Z,4.30
2019-05-19T12:00:35.317Z,4.80
2019-05-19T12:01:35.342Z,5.70
2019-05-19T12:02:35.304Z,4.50
2019-05-19T12:03:35.395Z,4.10
2019-05-19T12:04:35.276Z,4.80
2019-05-19T12:05:37.333Z,4.50
2019-05-19T12:06:39.624Z,4.40
2019-05-19T12:07:35.312Z,5.00
2019-05-19T12:08:35.236Z,3.80
2019-05-19T12:09:35.289Z,4.10
2019-05-19T12:10:35.214Z,4.30
2019-05-19T12:11:36.224Z,4.40
2019-05-19T12:12:35.209Z,4.90
2019-05-19T12:13:35.288Z,3.90
2019-05-19T12:14:35.175Z,4.70
2019-05-19T12:15:35.221Z,5.10
2019-05-19T12:16:35.154Z,3.00
2019-05-19T12:17:35.163Z,3.50
2019-05-19T12:18:35.135Z,3.80
2019-05-19T12:19:35.146Z,4.10
2019-05-19T12:20:35.114Z,3.70
2019-05-19T12:21:35.169Z,4.00
2019-05-19T12:22:35.105Z,4.60
2019-05-19T12:23:35.173Z,5.60
2019-05-19T12:24:35.075Z,3.90
2019-05-19T12:25:35.086Z,3.60
2019-05-19T12:26:35.065Z,4.00
2019-05-19T12:27:35.133Z,3.30
2019-05-19T12:28:35.023Z,3.80
2019-05-19T12:29:35.022Z,3.10
2019-05-19T12:30:35.013Z,3.50
2019-05-19T12:31:35.023Z,3.90
2019-05-19T12:32:35.058Z,3.80
2019-05-19T12:33:35.045Z,3.40
2019-05-19T12:34:34.962Z,3.70
2019-05-19T12:35:35.050Z,3.80
2019-05-19T12:36:34.944Z,3.20
2019-05-19T12:37:34.998Z,4.60
2019-05-19T12:38:34.925Z,3.80
2019-05-19T12:39:34.985Z,3.90
2019-05-19T12:40:34.897Z,3.80
2019-05-19T12:41:34.994Z,4.30
2019-05-19T12:42:34.897Z,3.90
2019-05-19T12:43:41.866Z,3.50
2019-05-19T12:44:34.855Z,3.70
2019-05-19T12:45:49.874Z,4.20
2019-05-19T12:46:35.742Z,3.70
2019-05-19T12:47:34.863Z,3.60
2019-05-19T12:48:34.917Z,3.60
2019-05-19T12:49:34.847Z,3.00
2019-05-19T12:50:34.797Z,3.20
2019-05-19T12:51:34.856Z,2.20
2019-05-19T12:52:34.781Z,2.40
2019-05-19T12:53:34.871Z,2.50
2019-05-19T12:54:34.751Z,2.30
2019-05-19T12:55:34.782Z,2.60
2019-05-19T12:56:39.596Z,3.60
2019-05-19T12:57:35.745Z,2.60
2019-05-19T12:58:34.716Z,2.80
2019-05-19T12:59:34.811Z,2.60
2019-05-19T13:00:34.683Z,2.60
2019-05-19T13:01:34.725Z,2.90
2019-05-19T13:02:37.854Z,3.40
2019-05-19T13:03:34.736Z,3.90
2019-05-19T13:04:34.642Z,3.40
2019-05-19T13:05:34.642Z,3.30
2019-05-19T13:06:34.618Z,4.60
2019-05-19T13:07:34.686Z,4.00
2019-05-19T13:08:34.594Z,3.50
2019-05-19T13:09:34.669Z,3.40
2019-05-19T13:10:34.573Z,3.70